Sagittarian — WCY5210 — position and weather

sailwx.info

Track history (hours):
 
Tides and Currents Weather Stations Pressure Air Temp Water Temp Dewpoint Dewpoint Depression Visibility Wind Speed Wind Dir Waves Ship Positions

Sagittarian

Owner: TAURUS MARINE, SAN FRANCISCO, CA. More information available from US FCC via Universal Licensing System and Coast Guard Vessel Documentation Center.

Last reported at 2016-Dec-06 00:13 UTC. Time now 2016-Dec-06 18:01 UTC.
Position N 37°46' W 122°23'.

; draft 3 m.

Type: Towing. MMSI: 366969510.

Date/timePositionNaut miles runAvg speedWind from/ knotsBaromVisibWave heightAir tempDewpointWater temp
2016-Dec-06 00:13N 37°46' W 122°23'2 3.6
2016-Dec-05 23:33N 37°49' W 122°24'7 6.6
2016-Dec-05 22:33N 37°55' W 122°22'0 0.0
2016-Dec-05 21:31N 37°55' W 122°22'0 0.0
2016-Dec-05 20:33N 37°55' W 122°22'0 0.0
2016-Dec-05 19:33N 37°55' W 122°22'0 0.0
2016-Dec-05 18:34N 37°55' W 122°22'0 0.0
2016-Dec-05 17:33N 37°55' W 122°22'0 0.4
2016-Dec-05 16:33N 37°55' W 122°22'7 6.9
2016-Dec-05 15:34N 37°48' W 122°23'0 0.0
2016-Dec-04 19:33N 37°48' W 122°23'7 7.0
2016-Dec-04 18:33N 37°55' W 122°22'3 3.2
2016-Dec-04 17:33N 37°56' W 122°26'9 7.1
2016-Dec-04 16:16N 38°03' W 122°19'8 7.3
2016-Dec-04 15:06N 38°02' W 122°08'4 1.4
2016-Dec-04 12:29N 38°04' W 122°13'3 0.1
2016-Dec-03 14:07N 38°02' W 122°09'3 5.2
2016-Dec-03 13:31N 38°03' W 122°12'1110.3
2016-Dec-03 12:28N 37°59' W 122°25'910.2
2016-Dec-03 11:33N 37°50' W 122°24'4 0.4
2016-Dec-03 01:17N 37°46' W 122°23'1 1.7
2016-Dec-03 00:33N 37°47' W 122°22'1 0.6
2016-Dec-02 23:33N 37°46' W 122°21'3 2.6
2016-Dec-02 22:33N 37°48' W 122°23'0 0.0
2016-Dec-02 21:33N 37°48' W 122°23'0 0.0
2016-Dec-02 20:34N 37°48' W 122°23'0 0.0
2016-Dec-02 19:34N 37°48' W 122°23'1 0.1
2016-Dec-02 04:18N 37°46' W 122°23'810.6
2016-Dec-02 03:33N 37°54' W 122°25'1 0.9
2016-Dec-02 02:33N 37°54' W 122°26'6 5.8
2016-Dec-02 01:33N 37°49' W 122°23'2 2.4
2016-Dec-02 00:33N 37°46' W 122°23'0 0.1
2016-Dec-01 23:33N 37°46' W 122°23'0 0.0
2016-Dec-01 22:33N 37°46' W 122°23'0 0.0
2016-Dec-01 21:33N 37°46' W 122°23'1 1.4
2016-Dec-01 20:33N 37°48' W 122°23'6 6.4
2016-Dec-01 19:33N 37°54' W 122°22'1 0.8
2016-Dec-01 18:33N 37°55' W 122°22'0 0.0
2016-Dec-01 17:33N 37°55' W 122°22'0 0.0
2016-Dec-01 16:33N 37°55' W 122°22'0 0.0
2016-Dec-01 15:33N 37°55' W 122°22'0 0.0
2016-Dec-01 14:32N 37°55' W 122°22'0 0.0
2016-Dec-01 13:33N 37°55' W 122°22'4 4.1
2016-Dec-01 12:33N 37°51' W 122°24'5 1.5
2016-Dec-01 09:33N 37°46' W 122°23'2 1.7
2016-Dec-01 08:33N 37°45' W 122°21'0 0.0
2016-Dec-01 07:33N 37°45' W 122°21'0 0.0
2016-Dec-01 06:33N 37°45' W 122°21'0 0.0
2016-Dec-01 05:33N 37°45' W 122°21'0 0.0
2016-Dec-01 04:33N 37°45' W 122°21'0 0.2
2016-Dec-01 03:33N 37°46' W 122°22'0 0.1
2016-Dec-01 02:33N 37°46' W 122°22'0 0.0
2016-Dec-01 01:33N 37°46' W 122°21'0 0.0
2016-Dec-01 00:33N 37°46' W 122°21'0 0.0
2016-Nov-30 23:33N 37°46' W 122°21'0 0.0
2016-Nov-30 22:33N 37°46' W 122°21'0 0.0
2016-Nov-30 21:33N 37°46' W 122°22'1 1.5
2016-Nov-30 20:33N 37°46' W 122°23'0 0.0
2016-Nov-29 19:12N 37°46' W 122°23'2 3.2
2016-Nov-29 18:33N 37°45' W 122°21'1 1.5
2016-Nov-29 17:34N 37°44' W 122°20'0 0.0
2016-Nov-29 16:33N 37°44' W 122°20'4 3.6
2016-Nov-29 15:33N 37°46' W 122°23'0 0.0
2016-Nov-29 02:22N 37°46' W 122°23'3 4.3
2016-Nov-29 01:33N 37°50' W 122°24'5 5.4
2016-Nov-29 00:33N 37°55' W 122°22'0 0.0
2016-Nov-28 23:32N 37°55' W 122°22'0 0.0
2016-Nov-28 22:32N 37°55' W 122°22'0 0.0
2016-Nov-28 21:33N 37°55' W 122°22'0 0.0
2016-Nov-28 20:33N 37°55' W 122°22'0 0.0
2016-Nov-28 19:33N 37°55' W 122°22'0 0.0
2016-Nov-28 18:33N 37°55' W 122°22'0 0.0
2016-Nov-28 17:29N 37°55' W 122°22'3 2.7
2016-Nov-28 16:33N 37°53' W 122°24'7 7.0
2016-Nov-28 15:33N 37°46' W 122°23'0 0.0
2016-Nov-28 01:11N 37°46' W 122°23'5 8.1
2016-Nov-28 00:33N 37°51' W 122°24'5 4.6
2016-Nov-27 23:33N 37°56' W 122°25'12 0.4
2016-Nov-26 18:09N 38°04' W 122°13'811.4
2016-Nov-26 17:24N 38°01' W 122°23'910.6
2016-Nov-26 16:33N 37°52' W 122°24'6 5.5
2016-Nov-26 15:33N 37°46' W 122°23'  
Track history (hours):
 
Tides and Currents Weather Stations Pressure Air Temp Water Temp Dewpoint Dewpoint Depression Visibility Wind Speed Wind Dir Waves Ship Positions

Sagittarian

Owner: TAURUS MARINE, SAN FRANCISCO, CA. More information available from US FCC via Universal Licensing System and Coast Guard Vessel Documentation Center.

Last reported at 2016-Dec-06 00:13 UTC. Time now 2016-Dec-06 18:01 UTC.
Position N 37°46' W 122°23'.

; draft 3 m.

Type: Towing. MMSI: 366969510.

Date/timePositionNaut miles runAvg speedWind from/ knotsBaromVisibWave heightAir tempDewpointWater temp
2016-Dec-06 00:13N 37°46' W 122°23'2 3.6
2016-Dec-05 23:33N 37°49' W 122°24'7 6.6
2016-Dec-05 22:33N 37°55' W 122°22'0 0.0
2016-Dec-05 21:31N 37°55' W 122°22'0 0.0
2016-Dec-05 20:33N 37°55' W 122°22'0 0.0
2016-Dec-05 19:33N 37°55' W 122°22'0 0.0
2016-Dec-05 18:34N 37°55' W 122°22'0 0.0
2016-Dec-05 17:33N 37°55' W 122°22'0 0.4
2016-Dec-05 16:33N 37°55' W 122°22'7 6.9
2016-Dec-05 15:34N 37°48' W 122°23'0 0.0
2016-Dec-04 19:33N 37°48' W 122°23'7 7.0
2016-Dec-04 18:33N 37°55' W 122°22'3 3.2
2016-Dec-04 17:33N 37°56' W 122°26'9 7.1
2016-Dec-04 16:16N 38°03' W 122°19'8 7.3
2016-Dec-04 15:06N 38°02' W 122°08'4 1.4
2016-Dec-04 12:29N 38°04' W 122°13'3 0.1
2016-Dec-03 14:07N 38°02' W 122°09'3 5.2
2016-Dec-03 13:31N 38°03' W 122°12'1110.3
2016-Dec-03 12:28N 37°59' W 122°25'910.2
2016-Dec-03 11:33N 37°50' W 122°24'4 0.4
2016-Dec-03 01:17N 37°46' W 122°23'1 1.7
2016-Dec-03 00:33N 37°47' W 122°22'1 0.6
2016-Dec-02 23:33N 37°46' W 122°21'3 2.6
2016-Dec-02 22:33N 37°48' W 122°23'0 0.0
2016-Dec-02 21:33N 37°48' W 122°23'0 0.0
2016-Dec-02 20:34N 37°48' W 122°23'0 0.0
2016-Dec-02 19:34N 37°48' W 122°23'1 0.1
2016-Dec-02 04:18N 37°46' W 122°23'810.6
2016-Dec-02 03:33N 37°54' W 122°25'1 0.9
2016-Dec-02 02:33N 37°54' W 122°26'6 5.8
2016-Dec-02 01:33N 37°49' W 122°23'2 2.4
2016-Dec-02 00:33N 37°46' W 122°23'0 0.1
2016-Dec-01 23:33N 37°46' W 122°23'0 0.0
2016-Dec-01 22:33N 37°46' W 122°23'0 0.0
2016-Dec-01 21:33N 37°46' W 122°23'1 1.4
2016-Dec-01 20:33N 37°48' W 122°23'6 6.4
2016-Dec-01 19:33N 37°54' W 122°22'1 0.8
2016-Dec-01 18:33N 37°55' W 122°22'0 0.0
2016-Dec-01 17:33N 37°55' W 122°22'0 0.0
2016-Dec-01 16:33N 37°55' W 122°22'0 0.0
2016-Dec-01 15:33N 37°55' W 122°22'0 0.0
2016-Dec-01 14:32N 37°55' W 122°22'0 0.0
2016-Dec-01 13:33N 37°55' W 122°22'4 4.1
2016-Dec-01 12:33N 37°51' W 122°24'5 1.5
2016-Dec-01 09:33N 37°46' W 122°23'2 1.7
2016-Dec-01 08:33N 37°45' W 122°21'0 0.0
2016-Dec-01 07:33N 37°45' W 122°21'0 0.0
2016-Dec-01 06:33N 37°45' W 122°21'0 0.0
2016-Dec-01 05:33N 37°45' W 122°21'0 0.0
2016-Dec-01 04:33N 37°45' W 122°21'0 0.2
2016-Dec-01 03:33N 37°46' W 122°22'0 0.1
2016-Dec-01 02:33N 37°46' W 122°22'0 0.0
2016-Dec-01 01:33N 37°46' W 122°21'0 0.0
2016-Dec-01 00:33N 37°46' W 122°21'0 0.0
2016-Nov-30 23:33N 37°46' W 122°21'0 0.0
2016-Nov-30 22:33N 37°46' W 122°21'0 0.0
2016-Nov-30 21:33N 37°46' W 122°22'1 1.5
2016-Nov-30 20:33N 37°46' W 122°23'0 0.0
2016-Nov-29 19:12N 37°46' W 122°23'2 3.2
2016-Nov-29 18:33N 37°45' W 122°21'1 1.5
2016-Nov-29 17:34N 37°44' W 122°20'0 0.0
2016-Nov-29 16:33N 37°44' W 122°20'4 3.6
2016-Nov-29 15:33N 37°46' W 122°23'0 0.0
2016-Nov-29 02:22N 37°46' W 122°23'3 4.3
2016-Nov-29 01:33N 37°50' W 122°24'5 5.4
2016-Nov-29 00:33N 37°55' W 122°22'0 0.0
2016-Nov-28 23:32N 37°55' W 122°22'0 0.0
2016-Nov-28 22:32N 37°55' W 122°22'0 0.0
2016-Nov-28 21:33N 37°55' W 122°22'0 0.0
2016-Nov-28 20:33N 37°55' W 122°22'0 0.0
2016-Nov-28 19:33N 37°55' W 122°22'0 0.0
2016-Nov-28 18:33N 37°55' W 122°22'0 0.0
2016-Nov-28 17:29N 37°55' W 122°22'3 2.7
2016-Nov-28 16:33N 37°53' W 122°24'7 7.0
2016-Nov-28 15:33N 37°46' W 122°23'0 0.0
2016-Nov-28 01:11N 37°46' W 122°23'5 8.1
2016-Nov-28 00:33N 37°51' W 122°24'5 4.6
2016-Nov-27 23:33N 37°56' W 122°25'12 0.4
2016-Nov-26 18:09N 38°04' W 122°13'811.4
2016-Nov-26 17:24N 38°01' W 122°23'910.6
2016-Nov-26 16:33N 37°52' W 122°24'6 5.5
2016-Nov-26 15:33N 37°46' W 122°23'  

Dump ship's entire track history